»·PEaware :: SWA2784 KSLC-KPHX

SWA2784 :: KSLC-KPHX

FLIGHT INFORMATION

Flight Status: Arrived
Operator:
Southwest Airlines
More flights by this operator :: More flights under this callsign
Pilot: Chris C. (17882)
Aircraft: BOEING 737-800
(B738)
More flights by this aircraft type
Origin: KSLC Salt Lake City Intl
United States
Destination: KPHX Phoenix Sky Harbor Intl
United States
More flights between these airports :: More routes between these airports
Route: +EDETH5 BCE J11 CORKR TENTS BRUSR1
File this flight plan on PilotEdge
Remarks:
Altitude:
(Current/Filed)
37,000ft
Speed:
(Current/Filed)
350kts
Departed: 13-Jan-18 08:17 PM
Arrived: 13-Jan-18 10:18 PM
Distance/Time
Traveled:
441nm/2:01
Distance/Time
To Go:
Arrived

Flight Plot

Page will automatically refresh every two minutes.

Flight plan parsing failed; only flown route is shown


Map Options




Map Legend


Flown Route
Filed Route
Departure Airport
Arrival Airport
Navaid (VOR, NDB)
Fix

Horizontal Profiles

Position Reports

Time Latitude Longitude Heading Altitude Ground
Speed
13-Jan-18 19:13 40.788529 -111.980852 282 4223ft 0kts
13-Jan-18 19:14 40.788529 -111.980852 282 4223ft 0kts
13-Jan-18 19:17 40.788529 -111.980852 282 4223ft 0kts
13-Jan-18 19:18 40.788529 -111.980852 282 4223ft 0kts
13-Jan-18 19:19 40.788529 -111.980852 282 4223ft 0kts
13-Jan-18 19:20 40.788529 -111.980852 282 4223ft 0kts
13-Jan-18 19:21 40.788529 -111.980852 282 4223ft 0kts
13-Jan-18 19:22 40.788529 -111.980852 282 4223ft 0kts
13-Jan-18 19:23 40.788529 -111.980852 282 4223ft 0kts
13-Jan-18 19:24 40.788529 -111.980852 282 4223ft 0kts
13-Jan-18 19:25 40.788529 -111.980852 282 4223ft 0kts
13-Jan-18 19:26 40.788529 -111.980852 282 4223ft 0kts
13-Jan-18 19:27 40.788529 -111.980852 282 4223ft 0kts
13-Jan-18 19:28 40.788529 -111.980852 282 4223ft 0kts
13-Jan-18 19:29 40.788529 -111.980852 282 4223ft 0kts
13-Jan-18 19:30 40.788529 -111.980852 282 4223ft 0kts
13-Jan-18 19:31 40.788529 -111.980852 282 4223ft 0kts
13-Jan-18 19:32 40.788529 -111.980852 282 4223ft 0kts
13-Jan-18 19:33 40.788529 -111.980852 282 4223ft 0kts
13-Jan-18 19:34 40.788529 -111.980852 282 4223ft 0kts
13-Jan-18 19:35 40.788529 -111.980852 282 4223ft 0kts
13-Jan-18 19:36 40.788529 -111.980852 282 4223ft 0kts
13-Jan-18 19:37 40.788529 -111.980852 282 4223ft 0kts
13-Jan-18 19:38 40.788529 -111.980852 282 4223ft 0kts
13-Jan-18 19:39 40.788529 -111.980852 282 4223ft 0kts
13-Jan-18 19:40 40.788529 -111.980852 282 4223ft 0kts
13-Jan-18 19:41 40.788529 -111.980852 282 4223ft 0kts
13-Jan-18 19:42 40.788529 -111.980852 282 4223ft 0kts
13-Jan-18 19:43 40.788529 -111.980852 282 4223ft 0kts
13-Jan-18 19:44 40.788529 -111.980852 282 4223ft 0kts
13-Jan-18 19:45 40.788529 -111.980852 282 4223ft 0kts
13-Jan-18 19:46 40.788529 -111.980852 282 4223ft 0kts
13-Jan-18 19:47 40.788529 -111.980852 282 4223ft 0kts
13-Jan-18 19:48 40.788529 -111.980852 282 4223ft 0kts
13-Jan-18 19:49 40.788529 -111.980852 282 4223ft 0kts
13-Jan-18 19:50 40.788529 -111.980852 282 4223ft 0kts
13-Jan-18 19:51 40.788529 -111.980852 282 4223ft 0kts
13-Jan-18 19:52 40.788529 -111.980852 282 4223ft 0kts
13-Jan-18 19:53 40.788529 -111.980852 282 4223ft 0kts
13-Jan-18 19:54 40.788529 -111.980852 282 4223ft 0kts
13-Jan-18 19:55 40.788529 -111.980852 282 4223ft 0kts
13-Jan-18 19:56 40.788529 -111.980852 282 4223ft 0kts
13-Jan-18 19:57 40.788529 -111.980852 282 4223ft 0kts
13-Jan-18 19:58 40.788529 -111.980852 282 4223ft 0kts
13-Jan-18 19:59 40.788529 -111.980852 282 4223ft 0kts
13-Jan-18 20:00 40.788529 -111.980852 282 4223ft 0kts
13-Jan-18 20:01 40.788529 -111.980852 282 4223ft 0kts
13-Jan-18 20:02 40.788529 -111.980852 282 4223ft 0kts
13-Jan-18 20:03 40.788529 -111.980852 282 4223ft 0kts
13-Jan-18 20:04 40.788529 -111.980852 282 4223ft 0kts
13-Jan-18 20:05 40.788529 -111.980852 282 4223ft 0kts
13-Jan-18 20:06 40.788529 -111.980852 282 4223ft 0kts
13-Jan-18 20:07 40.788529 -111.980852 282 4223ft 0kts
13-Jan-18 20:08 40.788529 -111.980852 282 4223ft 0kts
13-Jan-18 20:09 40.788529 -111.980852 282 4223ft 0kts
13-Jan-18 20:10 40.788529 -111.980852 282 4223ft 0kts
13-Jan-18 20:11 40.788529 -111.980852 282 4223ft 0kts
13-Jan-18 20:12 40.788529 -111.980852 282 4223ft 0kts
13-Jan-18 20:13 40.788529 -111.980852 282 4223ft 0kts
13-Jan-18 20:14 40.788529 -111.980852 282 4223ft 0kts
13-Jan-18 20:15 40.788529 -111.980852 282 4223ft 0kts
13-Jan-18 20:16 40.788326 -111.980192 349 4223ft 0kts
13-Jan-18 20:17 40.788326 -111.980192 349 4223ft 0kts
13-Jan-18 20:18 40.789227 -111.979715 39 4223ft 13kts
13-Jan-18 20:19 40.786580 -111.976723 175 4224ft 30kts
13-Jan-18 20:20 40.778606 -111.975744 175 4227ft 25kts
13-Jan-18 20:21 40.774520 -111.974553 104 4227ft 0kts
13-Jan-18 20:22 40.774520 -111.974552 104 4227ft 0kts
13-Jan-18 20:23 40.776786 -111.973428 355 4227ft 56kts
13-Jan-18 20:24 40.821829 -111.980486 335 5202ft 221kts
13-Jan-18 20:25 40.832234 -112.058352 267 8026ft 234kts
13-Jan-18 20:26 40.824270 -112.142583 259 11416ft 236kts
13-Jan-18 20:27 40.811023 -112.212311 258 13929ft 237kts
13-Jan-18 20:28 40.749849 -112.275181 198 17063ft 253kts
13-Jan-18 20:29 40.692305 -112.291010 194 19055ft 257kts
13-Jan-18 20:30 40.635990 -112.287563 160 16912ft 228kts
13-Jan-18 20:31 40.573817 -112.250999 200 19452ft 210kts
13-Jan-18 20:32 40.561097 -112.290849 320 19984ft 206kts
13-Jan-18 20:40 40.788529 -111.980851 282 4223ft 0kts
13-Jan-18 20:41 40.788529 -111.980851 282 4223ft 0kts
13-Jan-18 20:42 40.788529 -111.980851 282 4223ft 0kts
13-Jan-18 20:43 40.788529 -111.980851 282 4223ft 0kts
13-Jan-18 20:44 40.788529 -111.980851 282 4223ft 0kts
13-Jan-18 20:45 40.788529 -111.980851 282 4223ft 0kts
13-Jan-18 20:46 40.788529 -111.980851 282 4223ft 0kts
13-Jan-18 20:47 40.788529 -111.980852 282 4223ft 0kts
13-Jan-18 20:48 40.788529 -111.980852 282 4223ft 0kts
13-Jan-18 20:49 40.788529 -111.980852 282 4223ft 0kts
13-Jan-18 20:50 40.788529 -111.980852 282 4223ft 0kts
13-Jan-18 20:51 40.788529 -111.980852 282 4223ft 0kts
13-Jan-18 20:52 40.788529 -111.980852 282 4223ft 0kts
13-Jan-18 20:53 40.788529 -111.980852 282 4223ft 0kts
13-Jan-18 20:54 40.788529 -111.980852 282 4223ft 0kts
13-Jan-18 20:55 40.788529 -111.980852 282 4223ft 0kts
13-Jan-18 20:56 40.788529 -111.980852 282 4223ft 0kts
13-Jan-18 20:57 40.788529 -111.980852 282 4223ft 0kts
13-Jan-18 20:58 40.788529 -111.980852 282 4223ft 0kts
13-Jan-18 20:59 40.788246 -111.980019 345 4224ft 0kts
13-Jan-18 21:00 40.788246 -111.980019 345 4224ft 0kts
13-Jan-18 21:01 40.788278 -111.976870 176 4223ft 24kts
13-Jan-18 21:02 40.780887 -111.976012 175 4227ft 29kts
13-Jan-18 21:03 40.774498 -111.974491 96 4227ft 0kts
13-Jan-18 21:04 40.774514 -111.974213 76 4227ft 12kts
13-Jan-18 21:05 40.802275 -111.976401 352 4555ft 201kts
13-Jan-18 21:06 40.861598 -111.990851 329 5365ft 230kts
13-Jan-18 21:07 40.903670 -112.053444 310 6570ft 239kts
13-Jan-18 21:08 40.889024 -112.128641 196 9188ft 266kts
13-Jan-18 21:09 40.817668 -112.150200 231 10849ft 279kts
13-Jan-18 21:10 40.794222 -112.250449 255 9634ft 294kts
13-Jan-18 21:11 40.737030 -112.308082 182 11523ft 281kts
13-Jan-18 21:12 40.657539 -112.297110 183 13239ft 290kts
13-Jan-18 21:13 40.576924 -112.310558 188 15370ft 301kts
13-Jan-18 21:14 40.491310 -112.328364 189 17202ft 316kts
13-Jan-18 21:15 40.404326 -112.346063 190 19149ft 319kts
13-Jan-18 21:16 40.315247 -112.366579 205 20853ft 333kts
13-Jan-18 21:17 40.236356 -112.425559 215 22966ft 334kts
13-Jan-18 21:18 40.154910 -112.485451 213 24887ft 339kts
13-Jan-18 21:19 40.071144 -112.544216 213 26671ft 341kts
13-Jan-18 21:20 39.986666 -112.602805 214 28178ft 346kts
13-Jan-18 21:21 39.902174 -112.661496 214 29821ft 339kts
13-Jan-18 21:22 39.817972 -112.723248 215 30856ft 347kts
13-Jan-18 21:23 39.732602 -112.782779 214 32112ft 345kts
13-Jan-18 21:24 39.645768 -112.829920 193 33597ft 341kts
13-Jan-18 21:25 39.550340 -112.843633 192 34368ft 344kts
13-Jan-18 21:26 39.456493 -112.857682 191 35448ft 344kts
13-Jan-18 21:27 39.361840 -112.869150 191 36591ft 341kts
13-Jan-18 21:28 39.267876 -112.880767 192 37424ft 342kts
13-Jan-18 21:29 39.170248 -112.895062 191 37532ft 369kts
13-Jan-18 21:30 39.061832 -112.911394 191 36417ft 420kts
13-Jan-18 21:31 38.944586 -112.927983 189 37385ft 436kts
13-Jan-18 21:32 38.820620 -112.943518 189 37541ft 462kts
13-Jan-18 21:33 38.693572 -112.965903 191 37455ft 451kts
13-Jan-18 21:34 38.565206 -112.983650 190 37466ft 475kts
13-Jan-18 21:35 38.432927 -113.004574 190 37453ft 480kts
13-Jan-18 21:36 38.299637 -113.002584 166 37421ft 490kts
13-Jan-18 21:37 38.192690 -112.894390 134 37447ft 502kts
13-Jan-18 21:38 38.094084 -112.768791 136 37434ft 505kts
13-Jan-18 21:39 37.994942 -112.643148 135 37434ft 505kts
13-Jan-18 21:40 37.895098 -112.519678 139 37460ft 504kts
13-Jan-18 21:41 37.788872 -112.405011 140 37454ft 504kts
13-Jan-18 21:42 37.679459 -112.296714 156 37454ft 499kts
13-Jan-18 21:43 37.545685 -112.275577 185 37457ft 488kts
13-Jan-18 21:44 37.410874 -112.285699 188 37453ft 487kts
13-Jan-18 21:45 37.276095 -112.297565 188 37449ft 486kts
13-Jan-18 21:46 37.141771 -112.310527 188 37455ft 487kts
13-Jan-18 21:47 37.007629 -112.323208 188 37431ft 481kts
13-Jan-18 21:48 36.875424 -112.336256 187 37422ft 480kts
13-Jan-18 21:49 36.742844 -112.347407 187 37410ft 480kts
13-Jan-18 21:50 36.609940 -112.358517 187 37384ft 480kts
13-Jan-18 21:51 36.477133 -112.369564 187 37406ft 480kts
13-Jan-18 21:52 36.346504 -112.380346 187 37398ft 480kts
13-Jan-18 21:53 36.213594 -112.391269 187 37415ft 480kts
13-Jan-18 21:54 36.081091 -112.402091 187 37416ft 480kts
13-Jan-18 21:55 35.948196 -112.412861 187 37408ft 480kts
13-Jan-18 21:56 35.815348 -112.423574 187 37411ft 480kts
13-Jan-18 21:57 35.682814 -112.434197 186 37406ft 480kts
13-Jan-18 21:58 35.549793 -112.444766 186 37389ft 480kts
13-Jan-18 21:59 35.416860 -112.437826 173 37090ft 488kts
13-Jan-18 22:00 35.286800 -112.412053 173 34935ft 459kts
13-Jan-18 22:01 35.163952 -112.387354 173 32408ft 441kts
13-Jan-18 22:02 35.045990 -112.362152 172 29907ft 427kts
13-Jan-18 22:03 34.933416 -112.337918 171 29388ft 412kts
13-Jan-18 22:04 34.820904 -112.312302 171 28891ft 417kts
13-Jan-18 22:05 34.709377 -112.287230 171 26577ft 399kts
13-Jan-18 22:06 34.604368 -112.262698 170 25619ft 374kts
13-Jan-18 22:07 34.501304 -112.239336 171 25391ft 378kts
13-Jan-18 22:08 34.398052 -112.216278 171 25396ft 379kts
13-Jan-18 22:09 34.295259 -112.189273 169 25388ft 379kts
13-Jan-18 22:10 34.192476 -112.162044 169 23482ft 372kts
13-Jan-18 22:11 34.093373 -112.136083 169 21286ft 364kts
13-Jan-18 22:12 33.995103 -112.136805 192 18791ft 347kts
13-Jan-18 22:13 33.906347 -112.157108 192 16240ft 310kts
13-Jan-18 22:14 33.823237 -112.174977 191 13012ft 308kts
13-Jan-18 22:15 33.740997 -112.193200 191 10310ft 278kts
13-Jan-18 22:16 33.667392 -112.209460 191 10248ft 268kts
13-Jan-18 22:17 33.591635 -112.226270 191 8086ft 291kts
13-Jan-18 22:18 33.512225 -112.244429 191 6337ft 300kts
13-Jan-18 22:19 33.437783 -112.247569 149 4268ft 215kts
13-Jan-18 22:20 33.428305 -112.189014 87 2981ft 169kts
13-Jan-18 22:21 33.429666 -112.133789 90 2302ft 162kts
13-Jan-18 22:22 33.428879 -112.082938 90 1769ft 149kts
13-Jan-18 22:23 33.428874 -112.035429 90 1299ft 136kts
13-Jan-18 22:24 33.429570 -112.010547 48 1122ft 11kts
13-Jan-18 22:25 33.431568 -112.008977 357 1126ft 17kts
13-Jan-18 22:26 33.432900 -112.007896 88 1129ft 8kts
13-Jan-18 22:27 33.432838 -112.003761 91 1125ft 18kts
13-Jan-18 22:28 33.433260 -111.998369 327 1123ft 1kts
13-Jan-18 22:29 33.433696 -111.998724 324 1124ft 0kts
13-Jan-18 22:30 33.433696 -111.998724 324 1124ft 0kts
13-Jan-18 22:31 33.433696 -111.998724 324 1124ft 0kts
13-Jan-18 22:32 33.433696 -111.998724 324 1124ft 0kts
13-Jan-18 22:33 33.433696 -111.998724 324 1124ft 0kts

Navigation Log

Ident Type
Flight plan parsing failed, navigation log unavailable